sensor_id;sensor_type;location;lat;lon;timestamp;P1;durP1;ratioP1;P2;durP2;ratioP2
55003;SDS011;40900;52.710;6.438;2022-07-29T00:00:45;3.92;;;1.48;;
55003;SDS011;40900;52.710;6.438;2022-07-29T00:03:11;3.78;;;1.70;;
55003;SDS011;40900;52.710;6.438;2022-07-29T00:05:38;4.15;;;1.60;;
55003;SDS011;40900;52.710;6.438;2022-07-29T00:08:04;3.42;;;1.90;;
55003;SDS011;40900;52.710;6.438;2022-07-29T00:10:30;2.92;;;1.60;;
55003;SDS011;40900;52.710;6.438;2022-07-29T00:12:56;5.47;;;1.58;;
55003;SDS011;40900;52.710;6.438;2022-07-29T00:15:22;3.53;;;1.85;;
55003;SDS011;40900;52.710;6.438;2022-07-29T00:17:48;3.17;;;1.65;;
55003;SDS011;40900;52.710;6.438;2022-07-29T00:20:13;4.93;;;1.60;;
55003;SDS011;40900;52.710;6.438;2022-07-29T00:22:39;7.20;;;1.88;;
55003;SDS011;40900;52.710;6.438;2022-07-29T00:25:05;3.08;;;1.50;;
55003;SDS011;40900;52.710;6.438;2022-07-29T00:27:32;4.57;;;1.88;;
55003;SDS011;40900;52.710;6.438;2022-07-29T00:29:58;3.03;;;1.70;;
55003;SDS011;40900;52.710;6.438;2022-07-29T00:32:25;3.42;;;1.67;;
55003;SDS011;40900;52.710;6.438;2022-07-29T00:34:50;4.60;;;1.90;;
55003;SDS011;40900;52.710;6.438;2022-07-29T00:37:35;8.05;;;1.88;;
55003;SDS011;40900;52.710;6.438;2022-07-29T00:40:00;4.18;;;1.55;;
55003;SDS011;40900;52.710;6.438;2022-07-29T00:42:26;5.93;;;1.80;;
55003;SDS011;40900;52.710;6.438;2022-07-29T00:44:52;8.57;;;2.22;;
55003;SDS011;40900;52.710;6.438;2022-07-29T00:47:18;6.38;;;1.95;;
55003;SDS011;40900;52.710;6.438;2022-07-29T00:49:43;4.30;;;1.88;;
55003;SDS011;40900;52.710;6.438;2022-07-29T00:52:10;5.35;;;1.92;;
55003;SDS011;40900;52.710;6.438;2022-07-29T00:54:37;5.25;;;1.75;;
55003;SDS011;40900;52.710;6.438;2022-07-29T00:57:05;3.20;;;1.48;;
55003;SDS011;40900;52.710;6.438;2022-07-29T00:59:32;3.28;;;1.50;;
55003;SDS011;40900;52.710;6.438;2022-07-29T01:01:57;6.25;;;2.13;;
55003;SDS011;40900;52.710;6.438;2022-07-29T01:04:23;4.03;;;2.00;;
55003;SDS011;40900;52.710;6.438;2022-07-29T01:06:49;6.38;;;1.80;;
55003;SDS011;40900;52.710;6.438;2022-07-29T01:09:16;3.90;;;2.00;;
55003;SDS011;40900;52.710;6.438;2022-07-29T01:11:43;3.60;;;1.70;;
55003;SDS011;40900;52.710;6.438;2022-07-29T01:14:12;2.97;;;1.75;;
55003;SDS011;40900;52.710;6.438;2022-07-29T01:16:44;3.25;;;2.10;;
55003;SDS011;40900;52.710;6.438;2022-07-29T01:19:23;3.83;;;1.95;;
55003;SDS011;40900;52.710;6.438;2022-07-29T01:21:57;5.95;;;2.10;;
55003;SDS011;40900;52.710;6.438;2022-07-29T01:24:39;3.47;;;1.90;;
55003;SDS011;40900;52.710;6.438;2022-07-29T01:30:22;6.05;;;2.03;;
55003;SDS011;40900;52.710;6.438;2022-07-29T01:32:51;5.25;;;1.90;;
55003;SDS011;40900;52.710;6.438;2022-07-29T01:35:25;5.85;;;2.10;;
55003;SDS011;40900;52.710;6.438;2022-07-29T01:37:57;5.75;;;1.83;;
55003;SDS011;40900;52.710;6.438;2022-07-29T01:40:36;5.03;;;1.75;;
55003;SDS011;40900;52.710;6.438;2022-07-29T01:43:14;2.70;;;1.67;;
55003;SDS011;40900;52.710;6.438;2022-07-29T01:45:59;6.53;;;2.10;;
55003;SDS011;40900;52.710;6.438;2022-07-29T01:48:31;4.93;;;1.70;;
55003;SDS011;40900;52.710;6.438;2022-07-29T01:51:11;2.35;;;1.60;;
55003;SDS011;40900;52.710;6.438;2022-07-29T01:53:47;7.88;;;2.63;;
55003;SDS011;40900;52.710;6.438;2022-07-29T01:56:21;3.95;;;1.88;;
55003;SDS011;40900;52.710;6.438;2022-07-29T01:58:49;3.53;;;2.00;;
55003;SDS011;40900;52.710;6.438;2022-07-29T02:01:18;3.35;;;1.98;;
55003;SDS011;40900;52.710;6.438;2022-07-29T02:03:45;7.63;;;2.05;;
55003;SDS011;40900;52.710;6.438;2022-07-29T02:06:12;6.43;;;2.20;;
55003;SDS011;40900;52.710;6.438;2022-07-29T02:08:42;7.88;;;2.33;;
55003;SDS011;40900;52.710;6.438;2022-07-29T02:11:10;3.88;;;1.85;;
55003;SDS011;40900;52.710;6.438;2022-07-29T02:13:36;3.95;;;2.22;;
55003;SDS011;40900;52.710;6.438;2022-07-29T02:16:03;4.32;;;2.10;;
55003;SDS011;40900;52.710;6.438;2022-07-29T02:18:32;3.83;;;2.03;;
55003;SDS011;40900;52.710;6.438;2022-07-29T02:21:01;7.05;;;2.38;;
55003;SDS011;40900;52.710;6.438;2022-07-29T02:23:28;5.25;;;2.05;;
55003;SDS011;40900;52.710;6.438;2022-07-29T02:25:57;5.13;;;2.47;;
55003;SDS011;40900;52.710;6.438;2022-07-29T02:28:28;6.25;;;2.28;;
55003;SDS011;40900;52.710;6.438;2022-07-29T02:30:57;5.05;;;2.03;;
55003;SDS011;40900;52.710;6.438;2022-07-29T02:33:25;7.18;;;1.95;;
55003;SDS011;40900;52.710;6.438;2022-07-29T02:35:52;4.88;;;2.65;;
55003;SDS011;40900;52.710;6.438;2022-07-29T02:38:20;4.50;;;2.00;;
55003;SDS011;40900;52.710;6.438;2022-07-29T02:41:10;5.47;;;2.58;;
55003;SDS011;40900;52.710;6.438;2022-07-29T02:43:38;5.25;;;2.03;;
55003;SDS011;40900;52.710;6.438;2022-07-29T02:46:05;5.90;;;1.80;;
55003;SDS011;40900;52.710;6.438;2022-07-29T02:48:45;3.00;;;2.10;;
55003;SDS011;40900;52.710;6.438;2022-07-29T02:51:23;5.22;;;2.00;;
55003;SDS011;40900;52.710;6.438;2022-07-29T02:54:04;4.75;;;2.00;;
55003;SDS011;40900;52.710;6.438;2022-07-29T02:56:34;4.30;;;1.98;;
55003;SDS011;40900;52.710;6.438;2022-07-29T02:59:01;4.88;;;2.10;;
55003;SDS011;40900;52.710;6.438;2022-07-29T03:01:31;5.38;;;2.03;;
55003;SDS011;40900;52.710;6.438;2022-07-29T03:04:00;4.03;;;2.33;;
55003;SDS011;40900;52.710;6.438;2022-07-29T03:06:29;4.55;;;2.50;;
55003;SDS011;40900;52.710;6.438;2022-07-29T03:08:57;3.95;;;2.08;;
55003;SDS011;40900;52.710;6.438;2022-07-29T03:11:25;5.28;;;2.30;;
55003;SDS011;40900;52.710;6.438;2022-07-29T03:13:51;4.35;;;2.05;;
55003;SDS011;40900;52.710;6.438;2022-07-29T03:16:19;5.88;;;2.08;;
55003;SDS011;40900;52.710;6.438;2022-07-29T03:18:47;3.10;;;1.80;;
55003;SDS011;40900;52.710;6.438;2022-07-29T03:21:13;6.00;;;1.65;;
55003;SDS011;40900;52.710;6.438;2022-07-29T03:23:43;5.75;;;1.70;;
55003;SDS011;40900;52.710;6.438;2022-07-29T03:26:10;5.38;;;2.00;;
55003;SDS011;40900;52.710;6.438;2022-07-29T03:28:36;3.90;;;1.80;;
55003;SDS011;40900;52.710;6.438;2022-07-29T03:31:02;4.38;;;2.22;;
55003;SDS011;40900;52.710;6.438;2022-07-29T03:33:27;3.53;;;1.95;;
55003;SDS011;40900;52.710;6.438;2022-07-29T03:35:55;5.40;;;2.08;;
55003;SDS011;40900;52.710;6.438;2022-07-29T03:38:22;4.18;;;1.85;;
55003;SDS011;40900;52.710;6.438;2022-07-29T03:40:51;5.05;;;1.73;;
55003;SDS011;40900;52.710;6.438;2022-07-29T03:43:19;5.53;;;2.10;;
55003;SDS011;40900;52.710;6.438;2022-07-29T03:45:48;5.22;;;2.30;;
55003;SDS011;40900;52.710;6.438;2022-07-29T03:48:18;4.55;;;2.20;;
55003;SDS011;40900;52.710;6.438;2022-07-29T03:50:46;4.68;;;2.00;;
55003;SDS011;40900;52.710;6.438;2022-07-29T03:53:12;5.45;;;2.38;;
55003;SDS011;40900;52.710;6.438;2022-07-29T03:55:42;4.10;;;1.70;;
55003;SDS011;40900;52.710;6.438;2022-07-29T03:58:11;4.03;;;2.08;;
55003;SDS011;40900;52.710;6.438;2022-07-29T04:00:38;5.10;;;2.42;;
55003;SDS011;40900;52.710;6.438;2022-07-29T04:03:05;4.47;;;2.00;;
55003;SDS011;40900;52.710;6.438;2022-07-29T04:05:31;4.70;;;2.22;;
55003;SDS011;40900;52.710;6.438;2022-07-29T04:07:56;4.90;;;2.00;;
55003;SDS011;40900;52.710;6.438;2022-07-29T04:10:22;3.78;;;1.80;;
55003;SDS011;40900;52.710;6.438;2022-07-29T04:12:48;5.72;;;1.90;;
55003;SDS011;40900;52.710;6.438;2022-07-29T04:15:14;6.50;;;2.10;;
55003;SDS011;40900;52.710;6.438;2022-07-29T04:17:40;5.35;;;1.92;;
55003;SDS011;40900;52.710;6.438;2022-07-29T04:20:06;10.52;;;2.33;;
55003;SDS011;40900;52.710;6.438;2022-07-29T04:22:32;7.38;;;1.98;;
55003;SDS011;40900;52.710;6.438;2022-07-29T04:24:58;6.47;;;2.13;;
55003;SDS011;40900;52.710;6.438;2022-07-29T04:27:24;4.07;;;2.13;;
55003;SDS011;40900;52.710;6.438;2022-07-29T04:29:50;4.20;;;1.90;;
55003;SDS011;40900;52.710;6.438;2022-07-29T04:32:16;3.13;;;1.90;;
55003;SDS011;40900;52.710;6.438;2022-07-29T04:34:42;6.88;;;2.70;;
55003;SDS011;40900;52.710;6.438;2022-07-29T04:37:07;4.18;;;1.98;;
55003;SDS011;40900;52.710;6.438;2022-07-29T04:39:33;7.80;;;2.20;;
55003;SDS011;40900;52.710;6.438;2022-07-29T04:41:59;4.10;;;1.92;;
55003;SDS011;40900;52.710;6.438;2022-07-29T04:44:24;5.13;;;2.45;;
55003;SDS011;40900;52.710;6.438;2022-07-29T04:46:50;7.43;;;2.08;;
55003;SDS011;40900;52.710;6.438;2022-07-29T04:49:16;5.03;;;1.98;;
55003;SDS011;40900;52.710;6.438;2022-07-29T04:51:41;6.53;;;2.83;;
55003;SDS011;40900;52.710;6.438;2022-07-29T04:54:07;5.43;;;2.13;;
55003;SDS011;40900;52.710;6.438;2022-07-29T04:56:33;5.38;;;2.03;;
55003;SDS011;40900;52.710;6.438;2022-07-29T04:58:58;6.07;;;2.13;;
55003;SDS011;40900;52.710;6.438;2022-07-29T05:01:24;6.43;;;2.28;;
55003;SDS011;40900;52.710;6.438;2022-07-29T05:03:49;4.18;;;1.92;;
55003;SDS011;40900;52.710;6.438;2022-07-29T05:06:15;4.38;;;2.17;;
55003;SDS011;40900;52.710;6.438;2022-07-29T05:08:41;4.18;;;2.08;;
55003;SDS011;40900;52.710;6.438;2022-07-29T05:11:07;3.90;;;2.28;;
55003;SDS011;40900;52.710;6.438;2022-07-29T05:13:32;9.32;;;2.28;;
55003;SDS011;40900;52.710;6.438;2022-07-29T05:15:58;7.13;;;2.33;;
55003;SDS011;40900;52.710;6.438;2022-07-29T05:18:24;4.88;;;2.17;;
55003;SDS011;40900;52.710;6.438;2022-07-29T05:20:50;5.22;;;2.17;;
55003;SDS011;40900;52.710;6.438;2022-07-29T05:23:16;5.28;;;2.30;;
55003;SDS011;40900;52.710;6.438;2022-07-29T05:25:42;4.75;;;2.25;;
55003;SDS011;40900;52.710;6.438;2022-07-29T05:28:08;5.30;;;2.30;;
55003;SDS011;40900;52.710;6.438;2022-07-29T05:30:34;6.75;;;2.00;;
55003;SDS011;40900;52.710;6.438;2022-07-29T05:33:00;4.95;;;2.03;;
55003;SDS011;40900;52.710;6.438;2022-07-29T05:35:25;5.53;;;2.13;;
55003;SDS011;40900;52.710;6.438;2022-07-29T05:37:51;6.40;;;2.42;;
55003;SDS011;40900;52.710;6.438;2022-07-29T05:40:17;5.90;;;2.20;;
55003;SDS011;40900;52.710;6.438;2022-07-29T05:42:43;3.92;;;2.50;;
55003;SDS011;40900;52.710;6.438;2022-07-29T05:45:08;6.63;;;1.98;;
55003;SDS011;40900;52.710;6.438;2022-07-29T05:47:35;5.63;;;2.30;;
55003;SDS011;40900;52.710;6.438;2022-07-29T05:50:00;7.45;;;2.17;;
55003;SDS011;40900;52.710;6.438;2022-07-29T05:52:26;7.78;;;1.98;;
55003;SDS011;40900;52.710;6.438;2022-07-29T05:54:52;7.72;;;2.25;;
55003;SDS011;40900;52.710;6.438;2022-07-29T05:57:22;7.78;;;2.03;;
55003;SDS011;40900;52.710;6.438;2022-07-29T05:59:49;5.13;;;2.03;;
55003;SDS011;40900;52.710;6.438;2022-07-29T06:02:15;6.28;;;2.15;;
55003;SDS011;40900;52.710;6.438;2022-07-29T06:04:41;6.55;;;2.55;;
55003;SDS011;40900;52.710;6.438;2022-07-29T06:07:07;6.88;;;2.10;;
55003;SDS011;40900;52.710;6.438;2022-07-29T06:09:33;5.47;;;2.28;;
55003;SDS011;40900;52.710;6.438;2022-07-29T06:11:59;9.02;;;2.17;;
55003;SDS011;40900;52.710;6.438;2022-07-29T06:14:25;5.45;;;2.17;;
55003;SDS011;40900;52.710;6.438;2022-07-29T06:16:51;7.60;;;2.22;;
55003;SDS011;40900;52.710;6.438;2022-07-29T06:19:18;6.45;;;2.28;;
55003;SDS011;40900;52.710;6.438;2022-07-29T06:21:44;4.55;;;2.00;;
55003;SDS011;40900;52.710;6.438;2022-07-29T06:24:11;7.40;;;2.10;;
55003;SDS011;40900;52.710;6.438;2022-07-29T06:26:37;5.18;;;2.00;;
55003;SDS011;40900;52.710;6.438;2022-07-29T06:29:04;4.85;;;2.17;;
55003;SDS011;40900;52.710;6.438;2022-07-29T06:31:30;8.40;;;2.17;;
55003;SDS011;40900;52.710;6.438;2022-07-29T06:33:56;5.93;;;2.60;;
55003;SDS011;40900;52.710;6.438;2022-07-29T06:36:22;6.57;;;2.50;;
55003;SDS011;40900;52.710;6.438;2022-07-29T06:38:47;4.63;;;1.73;;
55003;SDS011;40900;52.710;6.438;2022-07-29T06:41:13;6.07;;;2.40;;
55003;SDS011;40900;52.710;6.438;2022-07-29T06:43:41;6.68;;;2.35;;
55003;SDS011;40900;52.710;6.438;2022-07-29T06:46:10;6.03;;;2.20;;
55003;SDS011;40900;52.710;6.438;2022-07-29T06:48:37;6.13;;;2.63;;
55003;SDS011;40900;52.710;6.438;2022-07-29T06:51:04;4.75;;;2.38;;
55003;SDS011;40900;52.710;6.438;2022-07-29T06:53:31;5.60;;;2.25;;
55003;SDS011;40900;52.710;6.438;2022-07-29T06:55:58;3.88;;;2.13;;
55003;SDS011;40900;52.710;6.438;2022-07-29T06:58:28;6.07;;;2.33;;
55003;SDS011;40900;52.710;6.438;2022-07-29T07:00:54;7.82;;;2.58;;
55003;SDS011;40900;52.710;6.438;2022-07-29T07:03:20;5.47;;;2.13;;
55003;SDS011;40900;52.710;6.438;2022-07-29T07:05:47;4.45;;;1.92;;
55003;SDS011;40900;52.710;6.438;2022-07-29T07:08:13;6.25;;;2.55;;
55003;SDS011;40900;52.710;6.438;2022-07-29T07:10:41;7.15;;;2.72;;
55003;SDS011;40900;52.710;6.438;2022-07-29T07:13:07;5.93;;;2.22;;
55003;SDS011;40900;52.710;6.438;2022-07-29T07:15:33;5.43;;;3.00;;
55003;SDS011;40900;52.710;6.438;2022-07-29T07:18:00;7.85;;;2.85;;
55003;SDS011;40900;52.710;6.438;2022-07-29T07:20:25;7.55;;;3.53;;
55003;SDS011;40900;52.710;6.438;2022-07-29T07:22:51;7.53;;;2.50;;
55003;SDS011;40900;52.710;6.438;2022-07-29T07:25:17;6.03;;;2.35;;
55003;SDS011;40900;52.710;6.438;2022-07-29T07:27:46;8.60;;;2.15;;
55003;SDS011;40900;52.710;6.438;2022-07-29T07:30:12;5.55;;;2.38;;
55003;SDS011;40900;52.710;6.438;2022-07-29T07:32:38;4.82;;;2.25;;
55003;SDS011;40900;52.710;6.438;2022-07-29T07:35:04;6.70;;;2.40;;
55003;SDS011;40900;52.710;6.438;2022-07-29T07:37:32;7.50;;;2.40;;
55003;SDS011;40900;52.710;6.438;2022-07-29T07:39:58;5.22;;;2.30;;
55003;SDS011;40900;52.710;6.438;2022-07-29T07:42:25;5.93;;;2.42;;
55003;SDS011;40900;52.710;6.438;2022-07-29T07:44:51;6.28;;;2.60;;
55003;SDS011;40900;52.710;6.438;2022-07-29T07:47:18;5.22;;;2.40;;
55003;SDS011;40900;52.710;6.438;2022-07-29T07:49:48;5.90;;;2.40;;
55003;SDS011;40900;52.710;6.438;2022-07-29T07:52:15;6.18;;;2.47;;
55003;SDS011;40900;52.710;6.438;2022-07-29T07:54:43;6.70;;;2.72;;
55003;SDS011;40900;52.710;6.438;2022-07-29T07:57:10;4.85;;;2.28;;
55003;SDS011;40900;52.710;6.438;2022-07-29T07:59:36;9.77;;;2.75;;
55003;SDS011;40900;52.710;6.438;2022-07-29T08:02:02;6.70;;;3.03;;
55003;SDS011;40900;52.710;6.438;2022-07-29T08:04:28;5.38;;;2.70;;
55003;SDS011;40900;52.710;6.438;2022-07-29T08:06:54;4.97;;;2.60;;
55003;SDS011;40900;52.710;6.438;2022-07-29T08:09:21;8.40;;;2.75;;
55003;SDS011;40900;52.710;6.438;2022-07-29T08:11:48;7.05;;;2.85;;
55003;SDS011;40900;52.710;6.438;2022-07-29T08:14:13;4.22;;;2.47;;
55003;SDS011;40900;52.710;6.438;2022-07-29T08:16:39;10.13;;;2.83;;
55003;SDS011;40900;52.710;6.438;2022-07-29T08:19:06;6.43;;;2.53;;
55003;SDS011;40900;52.710;6.438;2022-07-29T08:21:32;7.55;;;2.67;;
55003;SDS011;40900;52.710;6.438;2022-07-29T08:23:57;6.20;;;3.15;;
55003;SDS011;40900;52.710;6.438;2022-07-29T08:26:42;7.18;;;3.00;;
55003;SDS011;40900;52.710;6.438;2022-07-29T08:29:08;6.05;;;2.80;;
55003;SDS011;40900;52.710;6.438;2022-07-29T08:31:35;6.22;;;2.67;;
55003;SDS011;40900;52.710;6.438;2022-07-29T08:34:02;8.63;;;2.80;;
55003;SDS011;40900;52.710;6.438;2022-07-29T08:36:29;6.07;;;2.70;;
55003;SDS011;40900;52.710;6.438;2022-07-29T08:38:55;5.80;;;3.10;;
55003;SDS011;40900;52.710;6.438;2022-07-29T08:41:20;4.80;;;2.90;;
55003;SDS011;40900;52.710;6.438;2022-07-29T08:43:47;6.60;;;3.13;;
55003;SDS011;40900;52.710;6.438;2022-07-29T08:46:13;5.88;;;3.33;;
55003;SDS011;40900;52.710;6.438;2022-07-29T08:48:39;7.60;;;3.60;;
55003;SDS011;40900;52.710;6.438;2022-07-29T08:51:06;7.50;;;3.17;;
55003;SDS011;40900;52.710;6.438;2022-07-29T08:53:33;12.00;;;3.42;;
55003;SDS011;40900;52.710;6.438;2022-07-29T08:55:59;6.95;;;3.50;;
55003;SDS011;40900;52.710;6.438;2022-07-29T08:58:26;8.73;;;2.90;;
55003;SDS011;40900;52.710;6.438;2022-07-29T09:00:56;10.02;;;3.22;;
55003;SDS011;40900;52.710;6.438;2022-07-29T09:03:25;5.88;;;3.35;;
55003;SDS011;40900;52.710;6.438;2022-07-29T09:05:54;6.85;;;3.10;;
55003;SDS011;40900;52.710;6.438;2022-07-29T09:08:20;8.57;;;3.25;;
55003;SDS011;40900;52.710;6.438;2022-07-29T09:10:46;7.05;;;3.10;;
55003;SDS011;40900;52.710;6.438;2022-07-29T09:13:12;11.27;;;3.17;;
55003;SDS011;40900;52.710;6.438;2022-07-29T09:15:37;7.32;;;3.40;;
55003;SDS011;40900;52.710;6.438;2022-07-29T09:18:03;10.80;;;4.03;;
55003;SDS011;40900;52.710;6.438;2022-07-29T09:20:29;4.38;;;3.05;;
55003;SDS011;40900;52.710;6.438;2022-07-29T09:23:14;5.63;;;3.17;;
55003;SDS011;40900;52.710;6.438;2022-07-29T09:25:40;5.57;;;3.10;;
55003;SDS011;40900;52.710;6.438;2022-07-29T09:28:07;6.07;;;2.72;;
55003;SDS011;40900;52.710;6.438;2022-07-29T09:30:34;7.60;;;3.42;;
55003;SDS011;40900;52.710;6.438;2022-07-29T09:33:01;6.57;;;2.88;;
55003;SDS011;40900;52.710;6.438;2022-07-29T09:35:29;5.72;;;2.70;;
55003;SDS011;40900;52.710;6.438;2022-07-29T09:37:55;7.32;;;2.97;;
55003;SDS011;40900;52.710;6.438;2022-07-29T09:40:26;6.47;;;2.65;;
55003;SDS011;40900;52.710;6.438;2022-07-29T09:42:53;8.10;;;2.67;;
55003;SDS011;40900;52.710;6.438;2022-07-29T09:47:54;6.50;;;2.75;;
55003;SDS011;40900;52.710;6.438;2022-07-29T09:50:22;9.88;;;3.03;;
55003;SDS011;40900;52.710;6.438;2022-07-29T09:52:59;14.25;;;3.35;;
55003;SDS011;40900;52.710;6.438;2022-07-29T09:55:24;7.97;;;3.30;;
55003;SDS011;40900;52.710;6.438;2022-07-29T09:57:50;9.40;;;3.30;;
55003;SDS011;40900;52.710;6.438;2022-07-29T10:00:17;7.07;;;2.78;;
55003;SDS011;40900;52.710;6.438;2022-07-29T10:02:45;6.53;;;2.83;;
55003;SDS011;40900;52.710;6.438;2022-07-29T10:05:22;8.82;;;2.83;;
55003;SDS011;40900;52.710;6.438;2022-07-29T10:07:50;4.68;;;2.58;;
55003;SDS011;40900;52.710;6.438;2022-07-29T10:10:21;5.57;;;3.03;;
55003;SDS011;40900;52.710;6.438;2022-07-29T10:12:48;6.15;;;2.75;;
55003;SDS011;40900;52.710;6.438;2022-07-29T10:15:15;6.35;;;2.85;;
55003;SDS011;40900;52.710;6.438;2022-07-29T10:17:41;6.30;;;2.70;;
55003;SDS011;40900;52.710;6.438;2022-07-29T10:20:08;12.57;;;3.00;;
55003;SDS011;40900;52.710;6.438;2022-07-29T10:22:34;9.32;;;2.80;;
55003;SDS011;40900;52.710;6.438;2022-07-29T10:24:59;6.00;;;2.50;;
55003;SDS011;40900;52.710;6.438;2022-07-29T10:27:26;6.55;;;2.60;;
55003;SDS011;40900;52.710;6.438;2022-07-29T10:29:53;5.45;;;2.80;;
55003;SDS011;40900;52.710;6.438;2022-07-29T10:32:29;9.23;;;3.13;;
55003;SDS011;40900;52.710;6.438;2022-07-29T10:46:19;7.68;;;2.80;;
55003;SDS011;40900;52.710;6.438;2022-07-29T10:49:05;6.93;;;3.20;;
55003;SDS011;40900;52.710;6.438;2022-07-29T11:05:04;7.38;;;3.25;;
55003;SDS011;40900;52.710;6.438;2022-07-29T11:07:31;7.38;;;2.53;;
55003;SDS011;40900;52.710;6.438;2022-07-29T11:12:54;9.65;;;2.85;;
55003;SDS011;40900;52.710;6.438;2022-07-29T11:15:20;11.57;;;3.00;;
55003;SDS011;40900;52.710;6.438;2022-07-29T11:20:32;9.90;;;2.60;;
55003;SDS011;40900;52.710;6.438;2022-07-29T11:23:01;8.98;;;3.17;;
55003;SDS011;40900;52.710;6.438;2022-07-29T11:25:42;10.50;;;2.88;;
55003;SDS011;40900;52.710;6.438;2022-07-29T11:28:09;9.52;;;3.08;;
55003;SDS011;40900;52.710;6.438;2022-07-29T11:30:51;6.90;;;2.92;;
55003;SDS011;40900;52.710;6.438;2022-07-29T11:33:30;5.93;;;2.72;;
55003;SDS011;40900;52.710;6.438;2022-07-29T11:36:07;8.18;;;2.67;;
55003;SDS011;40900;52.710;6.438;2022-07-29T11:38:33;9.88;;;2.90;;
55003;SDS011;40900;52.710;6.438;2022-07-29T11:43:55;7.45;;;2.72;;
55003;SDS011;40900;52.710;6.438;2022-07-29T11:49:11;6.05;;;2.90;;
55003;SDS011;40900;52.710;6.438;2022-07-29T11:51:38;7.65;;;2.67;;
55003;SDS011;40900;52.710;6.438;2022-07-29T11:54:04;6.38;;;3.15;;
55003;SDS011;40900;52.710;6.438;2022-07-29T11:56:30;7.97;;;3.22;;
55003;SDS011;40900;52.710;6.438;2022-07-29T11:59:07;6.32;;;2.67;;
55003;SDS011;40900;52.710;6.438;2022-07-29T12:01:34;8.02;;;2.80;;
55003;SDS011;40900;52.710;6.438;2022-07-29T12:04:07;5.50;;;2.65;;
55003;SDS011;40900;52.710;6.438;2022-07-29T12:06:36;8.13;;;3.28;;
55003;SDS011;40900;52.710;6.438;2022-07-29T12:09:07;8.13;;;2.70;;
55003;SDS011;40900;52.710;6.438;2022-07-29T12:11:33;7.82;;;3.20;;
55003;SDS011;40900;52.710;6.438;2022-07-29T12:13:59;12.18;;;3.13;;
55003;SDS011;40900;52.710;6.438;2022-07-29T12:16:34;6.07;;;2.78;;
55003;SDS011;40900;52.710;6.438;2022-07-29T12:19:01;11.75;;;3.08;;
55003;SDS011;40900;52.710;6.438;2022-07-29T12:21:44;9.00;;;2.95;;
55003;SDS011;40900;52.710;6.438;2022-07-29T12:24:14;7.53;;;2.88;;
55003;SDS011;40900;52.710;6.438;2022-07-29T12:26:56;7.38;;;2.97;;
55003;SDS011;40900;52.710;6.438;2022-07-29T12:29:23;6.78;;;3.33;;
55003;SDS011;40900;52.710;6.438;2022-07-29T12:31:53;5.20;;;2.83;;
55003;SDS011;40900;52.710;6.438;2022-07-29T12:34:20;9.85;;;3.33;;
55003;SDS011;40900;52.710;6.438;2022-07-29T12:36:49;6.05;;;3.28;;
55003;SDS011;40900;52.710;6.438;2022-07-29T12:39:16;9.18;;;3.08;;
55003;SDS011;40900;52.710;6.438;2022-07-29T12:41:42;7.90;;;3.20;;
55003;SDS011;40900;52.710;6.438;2022-07-29T12:44:09;7.03;;;2.78;;
55003;SDS011;40900;52.710;6.438;2022-07-29T12:46:35;8.52;;;2.97;;
55003;SDS011;40900;52.710;6.438;2022-07-29T12:49:01;11.80;;;3.10;;
55003;SDS011;40900;52.710;6.438;2022-07-29T12:51:31;5.53;;;3.05;;
55003;SDS011;40900;52.710;6.438;2022-07-29T12:54:01;7.80;;;2.60;;
55003;SDS011;40900;52.710;6.438;2022-07-29T12:56:36;8.38;;;3.10;;
55003;SDS011;40900;52.710;6.438;2022-07-29T12:59:17;9.75;;;3.35;;
55003;SDS011;40900;52.710;6.438;2022-07-29T13:01:45;9.43;;;2.83;;
55003;SDS011;40900;52.710;6.438;2022-07-29T13:04:25;8.30;;;2.90;;
55003;SDS011;40900;52.710;6.438;2022-07-29T13:06:59;7.47;;;2.40;;
55003;SDS011;40900;52.710;6.438;2022-07-29T13:09:35;6.80;;;2.42;;
55003;SDS011;40900;52.710;6.438;2022-07-29T13:12:06;6.78;;;2.53;;
55003;SDS011;40900;52.710;6.438;2022-07-29T13:17:12;7.72;;;2.45;;
55003;SDS011;40900;52.710;6.438;2022-07-29T13:19:50;4.63;;;2.30;;
55003;SDS011;40900;52.710;6.438;2022-07-29T13:22:18;5.70;;;2.47;;
55003;SDS011;40900;52.710;6.438;2022-07-29T13:27:14;7.13;;;2.65;;
55003;SDS011;40900;52.710;6.438;2022-07-29T13:29:44;7.55;;;2.20;;
55003;SDS011;40900;52.710;6.438;2022-07-29T13:32:10;6.45;;;2.20;;
55003;SDS011;40900;52.710;6.438;2022-07-29T13:34:36;6.80;;;2.45;;
55003;SDS011;40900;52.710;6.438;2022-07-29T13:37:02;6.78;;;2.33;;
55003;SDS011;40900;52.710;6.438;2022-07-29T13:39:28;5.18;;;2.20;;
55003;SDS011;40900;52.710;6.438;2022-07-29T13:41:53;9.95;;;2.40;;
55003;SDS011;40900;52.710;6.438;2022-07-29T13:44:19;7.38;;;2.47;;
55003;SDS011;40900;52.710;6.438;2022-07-29T13:46:45;8.10;;;2.10;;
55003;SDS011;40900;52.710;6.438;2022-07-29T13:49:11;7.88;;;1.95;;
55003;SDS011;40900;52.710;6.438;2022-07-29T13:51:37;7.45;;;2.33;;
55003;SDS011;40900;52.710;6.438;2022-07-29T13:54:03;5.53;;;1.83;;
55003;SDS011;40900;52.710;6.438;2022-07-29T13:56:29;9.55;;;2.15;;
55003;SDS011;40900;52.710;6.438;2022-07-29T13:58:54;9.57;;;2.20;;
55003;SDS011;40900;52.710;6.438;2022-07-29T14:01:20;5.07;;;1.90;;
55003;SDS011;40900;52.710;6.438;2022-07-29T14:03:46;7.50;;;2.60;;
55003;SDS011;40900;52.710;6.438;2022-07-29T14:06:12;4.63;;;1.98;;
55003;SDS011;40900;52.710;6.438;2022-07-29T14:08:38;5.68;;;1.95;;
55003;SDS011;40900;52.710;6.438;2022-07-29T14:11:04;4.43;;;2.10;;
55003;SDS011;40900;52.710;6.438;2022-07-29T14:13:30;6.68;;;2.20;;
55003;SDS011;40900;52.710;6.438;2022-07-29T14:15:56;7.88;;;1.80;;
55003;SDS011;40900;52.710;6.438;2022-07-29T14:18:22;6.75;;;2.08;;
55003;SDS011;40900;52.710;6.438;2022-07-29T14:20:48;3.88;;;1.88;;
55003;SDS011;40900;52.710;6.438;2022-07-29T14:23:14;7.25;;;2.42;;
55003;SDS011;40900;52.710;6.438;2022-07-29T14:25:40;5.47;;;1.92;;
55003;SDS011;40900;52.710;6.438;2022-07-29T14:28:06;6.93;;;2.20;;
55003;SDS011;40900;52.710;6.438;2022-07-29T14:30:32;5.13;;;1.80;;
55003;SDS011;40900;52.710;6.438;2022-07-29T14:32:57;5.88;;;1.80;;
55003;SDS011;40900;52.710;6.438;2022-07-29T14:35:23;7.28;;;1.88;;
55003;SDS011;40900;52.710;6.438;2022-07-29T14:37:49;5.60;;;2.03;;
55003;SDS011;40900;52.710;6.438;2022-07-29T14:40:14;6.93;;;2.28;;
55003;SDS011;40900;52.710;6.438;2022-07-29T14:42:40;4.32;;;1.65;;
55003;SDS011;40900;52.710;6.438;2022-07-29T14:45:06;6.75;;;2.22;;
55003;SDS011;40900;52.710;6.438;2022-07-29T14:47:33;6.55;;;2.00;;
55003;SDS011;40900;52.710;6.438;2022-07-29T14:49:59;5.60;;;1.75;;
55003;SDS011;40900;52.710;6.438;2022-07-29T14:52:24;7.35;;;2.05;;
55003;SDS011;40900;52.710;6.438;2022-07-29T14:54:50;5.95;;;1.98;;
55003;SDS011;40900;52.710;6.438;2022-07-29T14:57:16;5.00;;;2.35;;
55003;SDS011;40900;52.710;6.438;2022-07-29T14:59:42;5.32;;;1.98;;
55003;SDS011;40900;52.710;6.438;2022-07-29T15:02:07;7.07;;;2.20;;
55003;SDS011;40900;52.710;6.438;2022-07-29T15:04:33;8.68;;;2.20;;
55003;SDS011;40900;52.710;6.438;2022-07-29T15:06:59;5.97;;;1.88;;
55003;SDS011;40900;52.710;6.438;2022-07-29T15:09:25;8.65;;;2.13;;
55003;SDS011;40900;52.710;6.438;2022-07-29T15:11:51;6.13;;;2.15;;
55003;SDS011;40900;52.710;6.438;2022-07-29T15:14:17;6.70;;;2.38;;
55003;SDS011;40900;52.710;6.438;2022-07-29T15:16:42;9.00;;;2.28;;
55003;SDS011;40900;52.710;6.438;2022-07-29T15:19:08;7.07;;;2.08;;
55003;SDS011;40900;52.710;6.438;2022-07-29T15:21:34;5.13;;;2.28;;
55003;SDS011;40900;52.710;6.438;2022-07-29T15:24:00;7.20;;;2.10;;
55003;SDS011;40900;52.710;6.438;2022-07-29T15:26:26;4.28;;;2.20;;
55003;SDS011;40900;52.710;6.438;2022-07-29T15:28:52;8.90;;;2.45;;
55003;SDS011;40900;52.710;6.438;2022-07-29T15:31:17;7.15;;;2.65;;
55003;SDS011;40900;52.710;6.438;2022-07-29T15:33:46;7.82;;;2.13;;
55003;SDS011;40900;52.710;6.438;2022-07-29T15:36:12;9.45;;;3.03;;
55003;SDS011;40900;52.710;6.438;2022-07-29T15:38:38;8.50;;;2.40;;